Bitte die für das Benutzerkonto hinterlegte E-Mail-Adresse eingeben. Der Benutzername wird dann an diese E-Mail-Adresse geschickt.

WebCam

  
Kamera Halle
Kamera Vorfeld

GPS Triangle WM Sports Class

AeroClub Göppingen-Salach e.V.
Ausrichter der Modellflug
GPS Triangle-WM 2020

 

Aufgrund der aktuellen Corona Situation ist die WM auf den 15.8.-20.8.2021 verschoben
Wetter EDDS

METAR

EDDS 260020Z VRB02KT CAVOK M02/M02 Q1022 =
EDDS 252300Z 2600/2624 VRB02KT CAVOK TEMPO 2601/2608 3000 BCFG PROB30 TEMPO 2602/2608 0400 FZFG


TAF

EDDS 252300Z 2600/2624 VRB02KT CAVOK TEMPO 2601/2608 3000 BCFG PROB30 TEMPO 2602/2608 0400 FZFG =


SR/SS

06:46 / 15:31 UTC
(EDSO 26-11-2020)